Time;durP1;ratioP1;P1;durP2;ratioP2;P2;SDS_P1;SDS_P2;PMS_P1;PMS_P2;Temp;Humidity;BMP_temperature;BMP_pressure;BME280_temperature;BME280_humidity;BME280_pressure;Samples;Min_cycle;Max_cycle;Signal;HPM_P1;HPM_P2
2021/11/12 00:11:54;;;;;;;69.47;40.70;;;;;;;7.66;100.00;102113.00;10562271;28;20054;-80
2021/11/12 00:16:57;;;;;;;70.80;42.70;;;;;;;7.63;100.00;102106.81;10567688;28;20519;-80
2021/11/12 00:21:58;;;;;;;71.28;42.65;;;;;;;7.66;100.00;102101.81;10574314;28;20480;-81
2021/11/12 00:27:02;;;;;;;72.63;42.30;;;;;;;7.64;100.00;102098.28;10555732;28;20395;-80
2021/11/12 00:32:20;;;;;;;71.65;42.25;;;;;;;7.55;100.00;102080.72;10562886;28;20056;-81
2021/11/12 00:37:42;;;;;;;70.70;41.45;;;;;;;7.46;100.00;102082.84;10555557;28;20057;-80
2021/11/12 00:58:15;;;;;;;72.53;42.70;;;;;;;7.59;100.00;102072.28;10570984;28;20055;-80
2021/11/12 01:03:18;;;;;;;59.70;37.83;;;;;;;7.56;100.00;102067.03;10544916;28;20052;-82
2021/11/12 01:08:20;;;;;;;65.25;41.28;;;;;;;7.63;100.00;102068.19;10565319;28;20054;-81
2021/11/12 01:13:23;;;;;;;66.15;41.38;;;;;;;7.61;100.00;102060.38;10566270;28;20044;-81
2021/11/12 01:18:25;;;;;;;66.72;40.65;;;;;;;7.59;100.00;102062.00;10564180;28;20515;-82
2021/11/12 01:23:26;;;;;;;64.47;38.15;;;;;;;7.62;100.00;102058.69;10562198;28;20053;-82
2021/11/12 01:28:28;;;;;;;61.25;37.78;;;;;;;7.58;100.00;102055.09;10559415;28;20044;-81
2021/11/12 01:33:30;;;;;;;68.88;42.00;;;;;;;7.58;100.00;102051.63;10553918;28;20058;-82
2021/11/12 01:38:32;;;;;;;62.13;40.22;;;;;;;7.51;100.00;102047.00;10566331;28;20420;-82
2021/11/12 01:43:41;;;;;;;59.47;38.45;;;;;;;7.49;100.00;102049.53;10568244;28;20472;-81
2021/11/12 01:54:18;;;;;;;61.20;37.25;;;;;;;7.41;100.00;102041.44;10578672;28;20086;-81
2021/11/12 01:59:17;;;;;;;60.20;39.30;;;;;;;7.37;100.00;102031.81;10514473;28;1130148;-81
2021/11/12 02:04:25;;;;;;;67.03;40.15;;;;;;;7.30;100.00;102018.56;10578660;28;20127;-82
2021/11/12 02:09:28;;;;;;;63.72;39.40;;;;;;;7.22;100.00;102017.34;10559411;28;20048;-82
2021/11/12 02:14:30;;;;;;;59.85;36.35;;;;;;;7.15;100.00;102008.44;10548181;28;20051;-82
2021/11/12 02:19:35;;;;;;;69.90;40.63;;;;;;;7.10;100.00;101999.63;10555419;28;20059;-81
2021/11/12 02:24:43;;;;;;;56.25;35.47;;;;;;;7.05;100.00;101991.69;10561304;28;20044;-80
2021/11/12 02:29:53;;;;;;;62.97;36.45;;;;;;;7.01;100.00;101986.31;10554279;28;20054;-83
2021/11/12 02:35:00;;;;;;;62.45;36.72;;;;;;;6.99;100.00;101988.81;10557176;28;20109;-82
2021/11/12 02:40:04;;;;;;;59.03;35.08;;;;;;;6.97;100.00;101990.41;10553867;28;20534;-81
2021/11/12 02:45:05;;;;;;;60.90;35.55;;;;;;;6.95;100.00;101984.34;10559029;28;20055;-81
2021/11/12 02:50:08;;;;;;;59.90;37.38;;;;;;;6.90;100.00;101985.78;10568090;28;20051;-81
2021/11/12 02:55:09;;;;;;;63.70;38.30;;;;;;;6.83;100.00;101983.75;10552953;28;20051;-81
2021/11/12 03:00:14;;;;;;;59.75;36.10;;;;;;;6.74;100.00;101976.44;10555183;28;20062;-82
2021/11/12 03:05:16;;;;;;;60.45;36.97;;;;;;;6.66;100.00;101972.63;10569445;28;20043;-82
2021/11/12 03:10:18;;;;;;;65.97;36.28;;;;;;;6.61;100.00;101974.97;10553464;28;20050;-83
2021/11/12 03:15:20;;;;;;;63.30;41.10;;;;;;;6.67;100.00;101974.41;10541658;28;20454;-81
2021/11/12 03:20:23;;;;;;;63.10;38.28;;;;;;;6.66;100.00;101966.63;10569936;28;20052;-81
2021/11/12 03:25:40;;;;;;;61.45;36.15;;;;;;;6.59;100.00;101960.31;10559793;28;20055;-82
2021/11/12 03:49:29;;;;;;;56.00;35.03;;;;;;;6.50;100.00;101945.28;10554133;28;20050;-82
2021/11/12 04:19:14;;;;;;;53.22;29.08;;;;;;;6.03;100.00;101891.56;10543695;28;20058;-81
2021/11/12 05:33:43;;;;;;;50.63;31.25;;;;;;;4.30;100.00;101769.56;10571564;28;20047;-81
2021/11/12 05:44:29;;;;;;;41.65;28.23;;;;;;;4.16;100.00;101773.94;10574956;28;20053;-81
2021/11/12 06:00:12;;;;;;;38.75;26.58;;;;;;;3.72;100.00;101781.66;10531466;28;20435;-81
2021/11/12 06:05:16;;;;;;;42.15;27.95;;;;;;;3.73;100.00;101784.31;10505072;28;20134;-82
2021/11/12 06:10:18;;;;;;;39.30;28.95;;;;;;;3.70;100.00;101770.47;10500086;28;20052;-81
2021/11/12 06:15:20;;;;;;;41.08;29.58;;;;;;;3.54;100.00;101745.69;10526017;28;20056;-81
2021/11/12 06:20:22;;;;;;;41.67;28.30;;;;;;;3.55;100.00;101750.00;10495618;28;20052;-81
2021/11/12 06:25:23;;;;;;;43.70;29.73;;;;;;;3.57;100.00;101758.63;10493013;28;20089;-81
2021/11/12 06:30:25;;;;;;;42.33;28.92;;;;;;;3.60;100.00;101778.41;10487856;28;20063;-82
2021/11/12 06:35:27;;;;;;;44.50;29.63;;;;;;;3.42;100.00;101801.22;10506550;28;20048;-80
2021/11/12 06:40:30;;;;;;;46.13;30.58;;;;;;;3.33;100.00;101786.22;10489531;28;20052;-81
2021/11/12 06:50:54;;;;;;;42.28;26.88;;;;;;;3.19;100.00;101759.84;10515451;28;20052;-80
2021/11/12 06:55:59;;;;;;;43.55;27.40;;;;;;;3.09;100.00;101761.75;10513390;28;20056;-80
2021/11/12 07:01:01;;;;;;;43.75;28.65;;;;;;;2.97;100.00;101746.56;10545214;28;20040;-81
2021/11/12 07:06:03;;;;;;;42.33;26.80;;;;;;;2.92;100.00;101743.75;10529265;28;20515;-80
2021/11/12 07:11:04;;;;;;;47.85;28.02;;;;;;;2.92;100.00;101745.41;10551358;28;20054;-80
2021/11/12 07:16:07;;;;;;;41.75;27.20;;;;;;;2.96;100.00;101743.94;10547134;28;20393;-80
2021/11/12 07:21:09;;;;;;;43.28;27.30;;;;;;;2.90;100.00;101745.34;10546743;28;20412;-80
2021/11/12 07:26:30;;;;;;;46.38;27.80;;;;;;;2.74;100.00;101745.19;10542625;28;20047;-81
2021/11/12 07:31:32;;;;;;;47.75;30.08;;;;;;;2.88;100.00;101740.91;10550124;28;20047;-80
2021/11/12 07:36:36;;;;;;;49.22;30.02;;;;;;;2.84;100.00;101732.19;10561584;28;20126;-80
2021/11/12 07:42:27;;;;;;;48.30;29.55;;;;;;;2.93;100.00;101735.28;10555403;28;20051;-81
2021/11/12 07:47:16;;;;;;;48.05;28.65;;;;;;;2.92;100.00;101714.75;10548702;28;20157;-81
2021/11/12 07:52:20;;;;;;;51.17;30.58;;;;;;;2.99;100.00;101711.75;10549957;28;20052;-81
2021/11/12 07:57:22;;;;;;;44.78;28.10;;;;;;;3.14;100.00;101725.47;10563151;28;20512;-80
2021/11/12 08:02:24;;;;;;;45.15;28.17;;;;;;;3.04;100.00;101719.72;10559341;28;20052;-82
2021/11/12 08:07:29;;;;;;;41.90;28.35;;;;;;;3.19;100.00;101718.94;10551333;28;20052;-81
2021/11/12 08:12:35;;;;;;;50.80;28.42;;;;;;;3.04;100.00;101719.72;10553569;28;20048;-81
2021/11/12 08:22:44;;;;;;;50.63;29.77;;;;;;;3.13;100.00;101725.38;10555549;28;20047;-80
2021/11/12 08:28:02;;;;;;;;;;;;;;;3.28;100.00;101710.03;10567192;28;20048;-80
2021/11/12 08:33:12;;;;;;;53.65;30.23;;;;;;;3.14;100.00;101694.78;10555557;28;19962;-81
2021/11/12 08:44:03;;;;;;;48.50;30.08;;;;;;;3.25;100.00;101703.06;10564623;28;20122;-80
2021/11/12 08:49:12;;;;;;;49.05;29.60;;;;;;;3.27;100.00;101681.03;10562876;28;20542;-81
2021/11/12 08:54:14;;;;;;;44.67;28.98;;;;;;;3.44;100.00;101661.53;10562976;28;20052;-80
2021/11/12 08:59:17;;;;;;;49.35;30.48;;;;;;;3.58;100.00;101663.22;10543560;28;20047;-81
2021/11/12 09:04:18;;;;;;;51.72;30.95;;;;;;;3.49;100.00;101656.69;10570345;28;20066;-81
2021/11/12 09:09:20;;;;;;;44.22;29.00;;;;;;;3.57;100.00;101671.66;10579094;28;20054;-81
2021/11/12 09:14:25;;;;;;;43.70;29.85;;;;;;;3.67;100.00;101653.47;10540951;28;20504;-82
2021/11/12 09:19:27;;;;;;;51.20;29.80;;;;;;;3.70;100.00;101632.31;10558772;28;20058;-82
2021/11/12 09:24:29;;;;;;;47.03;28.73;;;;;;;3.89;100.00;101608.59;10566907;28;20148;-80
2021/11/12 09:29:30;;;;;;;44.92;27.48;;;;;;;3.96;100.00;101605.56;10564264;28;20048;-81
2021/11/12 09:34:34;;;;;;;44.08;28.13;;;;;;;4.32;100.00;101596.41;10540168;28;20046;-81
2021/11/12 09:39:40;;;;;;;41.90;28.30;;;;;;;4.30;100.00;101610.78;10567453;28;20121;-82
2021/11/12 09:44:42;;;;;;;45.38;27.35;;;;;;;4.34;100.00;101612.72;10577020;28;20426;-81
2021/11/12 09:49:44;;;;;;;37.97;24.92;;;;;;;4.48;100.00;101622.00;10580254;28;20415;-81
2021/11/12 09:54:47;;;;;;;41.50;27.58;;;;;;;4.58;100.00;101622.47;10550541;28;20047;-81
2021/11/12 09:59:56;;;;;;;44.78;28.25;;;;;;;4.75;100.00;101606.25;10545408;28;20070;-80
2021/11/12 10:04:58;;;;;;;44.00;26.60;;;;;;;4.85;100.00;101589.69;10565142;28;20518;-81
2021/11/12 10:10:10;;;;;;;40.15;26.92;;;;;;;5.13;100.00;101589.34;10548757;28;20079;-82
2021/11/12 10:15:23;;;;;;;43.90;28.63;;;;;;;5.14;100.00;101576.59;10572020;28;20062;-84
2021/11/12 10:20:25;;;;;;;43.60;25.73;;;;;;;5.25;100.00;101567.72;10579621;28;20515;-81
2021/11/12 10:25:27;;;;;;;38.22;25.35;;;;;;;5.24;100.00;101559.97;10557556;28;20040;-82
2021/11/12 10:30:28;;;;;;;44.25;27.73;;;;;;;5.43;100.00;101547.19;10554378;28;20066;-82
2021/11/12 10:35:31;;;;;;;38.55;26.88;;;;;;;5.65;99.24;101543.06;10542965;28;20044;-82
2021/11/12 10:40:32;;;;;;;41.70;25.60;;;;;;;5.58;99.17;101537.66;10546016;28;20054;-82
2021/11/12 10:45:34;;;;;;;44.20;25.77;;;;;;;6.25;96.33;101528.69;10567331;28;20055;-83
2021/11/12 10:50:40;;;;;;;47.83;28.92;;;;;;;6.48;94.78;101520.25;10548375;28;20138;-82
2021/11/12 10:55:43;;;;;;;41.70;26.85;;;;;;;6.89;92.50;101518.50;10538986;28;20105;-80
2021/11/12 11:00:48;;;;;;;37.35;25.25;;;;;;;6.14;93.25;101509.34;10548435;28;20120;-83
2021/11/12 11:05:55;;;;;;;45.63;28.92;;;;;;;6.99;92.36;101514.63;10530012;28;20521;-81
2021/11/12 11:11:02;;;;;;;41.42;27.48;;;;;;;6.94;90.05;101517.00;10564261;28;20120;-82
2021/11/12 11:16:18;;;;;;;46.10;27.58;;;;;;;6.98;90.10;101513.75;10556556;28;20138;-82
2021/11/12 11:26:49;;;;;;;43.33;26.48;;;;;;;7.48;89.06;101485.63;10539787;28;20512;-82
2021/11/12 11:31:54;;;;;;;40.28;25.92;;;;;;;7.27;87.57;101454.84;10556948;28;20047;-83
2021/11/12 11:37:00;;;;;;;39.22;26.08;;;;;;;7.24;87.85;101454.69;10541852;28;20521;-83
2021/11/12 11:42:04;;;;;;;41.00;25.25;;;;;;;7.08;87.99;101450.66;10543299;28;20043;-82
2021/11/12 11:47:07;;;;;;;37.70;25.67;;;;;;;7.24;87.35;101423.81;10565970;28;20405;-82
2021/11/12 11:52:25;;;;;;;38.97;25.23;;;;;;;7.09;87.02;101412.16;10579923;28;20512;-82
2021/11/12 11:57:27;;;;;;;38.53;24.90;;;;;;;7.44;87.94;101402.28;10549872;28;20546;-84
2021/11/12 12:02:29;;;;;;;35.75;24.10;;;;;;;7.14;86.83;101397.75;10574698;28;20086;-83
2021/11/12 12:07:52;;;;;;;39.47;26.13;;;;;;;7.18;89.04;101396.16;10582141;28;20533;-81
2021/11/12 12:13:02;;;;;;;39.42;25.70;;;;;;;6.93;88.36;101380.66;10557081;28;20435;-84
2021/11/12 12:18:06;;;;;;;40.00;25.23;;;;;;;6.91;89.74;101391.72;10568504;28;20131;-83
2021/11/12 13:19:37;;;;;;;38.28;25.42;;;;;;;6.80;90.36;101297.88;10564183;27;20134;-83
2021/11/12 13:23:33;;;;;;;39.47;25.25;;;;;;;6.81;90.48;101304.78;10553560;28;20059;-84
2021/11/12 13:28:40;;;;;;;38.97;27.15;;;;;;;6.81;92.17;101303.91;10561245;28;20040;-83
2021/11/12 13:33:49;;;;;;;36.25;25.33;;;;;;;6.87;92.79;101296.41;10560355;28;20122;-83
2021/11/12 13:39:03;;;;;;;41.50;26.15;;;;;;;6.89;94.44;101289.63;10539142;28;20122;-81
2021/11/12 13:44:31;;;;;;;47.25;28.50;;;;;;;6.74;92.88;101274.50;10531226;28;20051;-84
2021/11/12 13:49:36;;;;;;;45.05;29.33;;;;;;;6.80;93.50;101277.28;10546658;28;20052;-83
2021/11/12 13:54:45;;;;;;;42.00;27.08;;;;;;;6.80;94.41;101267.00;10544774;28;20055;-82
2021/11/12 13:59:49;;;;;;;40.58;26.83;;;;;;;6.74;94.79;101258.19;10569825;28;20058;-83
2021/11/12 14:04:51;;;;;;;44.17;29.58;;;;;;;6.71;95.41;101252.97;10556352;28;20120;-83
2021/11/12 14:10:05;;;;;;;42.85;26.80;;;;;;;6.75;95.24;101237.72;10555017;28;20047;-82
2021/11/12 14:15:16;;;;;;;45.33;28.17;;;;;;;6.69;96.20;101229.75;10524654;28;20048;-83
2021/11/12 14:20:25;;;;;;;42.80;29.48;;;;;;;6.71;97.45;101222.97;10544878;28;20057;-82
2021/11/12 14:25:46;;;;;;;39.83;27.08;;;;;;;6.70;96.59;101218.66;10536173;28;20539;-82
2021/11/12 14:31:02;;;;;;;47.63;29.50;;;;;;;6.64;96.82;101215.88;10523654;28;20098;-85
2021/11/12 14:36:22;;;;;;;37.90;25.42;;;;;;;6.69;96.82;101213.44;10567580;28;20087;-82
2021/11/12 14:46:35;;;;;;;38.53;27.33;;;;;;;6.68;97.97;101191.13;10580789;28;20043;-82
2021/11/12 14:52:31;;;;;;;41.50;27.13;;;;;;;6.75;97.47;101193.09;10541288;28;20043;-83
2021/11/12 15:02:23;;;;;;;34.10;24.38;;;;;;;6.64;99.17;101180.75;10548247;28;20051;-83
2021/11/12 15:07:28;;;;;;;36.60;25.13;;;;;;;6.64;99.67;101164.47;10568643;28;20048;-84
2021/11/12 15:12:30;;;;;;;37.17;24.15;;;;;;;6.61;100.00;101147.22;10548309;28;20063;-82
2021/11/12 15:17:32;;;;;;;37.85;25.17;;;;;;;6.57;100.00;101136.75;10534387;27;20134;-82
2021/11/12 15:32:56;;;;;;;43.35;28.10;;;;;;;6.50;100.00;101125.41;10541326;28;20240;-81
2021/11/12 15:38:17;;;;;;;42.53;28.08;;;;;;;6.51;100.00;101122.00;10554862;28;20048;-83
2021/11/12 15:43:23;;;;;;;43.47;28.00;;;;;;;6.48;100.00;101108.19;10518195;28;20507;-82
2021/11/12 15:48:26;;;;;;;41.20;27.20;;;;;;;6.52;100.00;101089.47;10535844;28;20052;-83
2021/11/12 16:14:14;;;;;;;38.38;25.38;;;;;;;6.43;100.00;101072.03;10565309;28;20074;-83
2021/11/12 16:19:30;;;;;;;41.95;25.77;;;;;;;6.45;100.00;101070.41;10541497;28;20556;-82
2021/11/12 16:29:53;;;;;;;39.15;25.40;;;;;;;6.43;100.00;101079.75;10567090;28;20139;-83
2021/11/12 16:34:59;;;;;;;39.95;27.75;;;;;;;6.51;100.00;101070.59;10558587;28;20044;-83
2021/11/12 16:40:20;;;;;;;;;;;;;;;6.39;100.00;101057.34;10551543;28;20135;-82
2021/11/12 16:46:03;;;;;;;37.83;25.75;;;;;;;6.46;100.00;101063.56;10542399;28;19919;-82
2021/11/12 17:06:16;;;;;;;38.38;25.77;;;;;;;6.25;100.00;101073.97;10568526;28;20051;-82
2021/11/12 17:48:46;;;;;;;39.15;25.13;;;;;;;6.74;100.00;101043.09;10540978;28;20453;-82
2021/11/12 21:48:57;;;;;;;26.13;17.42;;;;;;;8.19;100.00;100887.78;10571628;28;20539;-86
2021/11/12 21:54:03;;;;;;;25.70;17.52;;;;;;;8.31;100.00;100888.94;10557783;28;20059;-84
2021/11/12 21:59:05;;;;;;;25.90;17.42;;;;;;;8.27;100.00;100882.81;10555098;28;20105;-83
2021/11/12 22:04:08;;;;;;;24.38;17.58;;;;;;;8.33;100.00;100882.09;10543173;28;20071;-82
2021/11/12 22:09:10;;;;;;;26.70;18.15;;;;;;;8.37;100.00;100878.81;10555635;28;20055;-83
2021/11/12 22:14:12;;;;;;;32.03;18.02;;;;;;;8.38;100.00;100868.53;10548653;28;20527;-84
2021/11/12 22:19:13;;;;;;;28.25;19.55;;;;;;;8.35;100.00;100860.69;10578233;28;20127;-85
2021/11/12 22:24:15;;;;;;;26.55;17.13;;;;;;;8.31;100.00;100858.88;10576065;28;20100;-84
2021/11/12 22:29:18;;;;;;;26.38;16.02;;;;;;;8.32;100.00;100870.06;10573044;28;20052;-83
2021/11/12 22:34:20;;;;;;;30.92;17.52;;;;;;;8.24;100.00;100857.84;10563812;28;20388;-84
2021/11/12 22:39:22;;;;;;;28.67;17.52;;;;;;;8.27;100.00;100869.94;10569022;28;20491;-83
2021/11/12 22:44:24;;;;;;;26.15;17.65;;;;;;;8.22;100.00;100856.97;10554064;28;20075;-84
2021/11/12 22:49:26;;;;;;;27.48;17.27;;;;;;;8.32;100.00;100860.63;10563047;28;20491;-82
2021/11/12 22:54:28;;;;;;;30.52;18.98;;;;;;;8.28;100.00;100850.19;10580207;28;20059;-83
2021/11/12 22:59:29;;;;;;;27.60;16.77;;;;;;;8.22;100.00;100850.91;10571079;28;20056;-84
2021/11/12 23:04:31;;;;;;;30.98;18.67;;;;;;;8.19;100.00;100846.56;10573132;28;20058;-86
2021/11/12 23:09:33;;;;;;;31.70;19.55;;;;;;;8.11;100.00;100848.09;10558391;28;20146;-85
2021/11/12 23:14:35;;;;;;;34.78;20.50;;;;;;;8.00;100.00;100839.22;10554550;28;20080;-82
2021/11/12 23:19:36;;;;;;;30.13;19.10;;;;;;;7.87;100.00;100840.59;10535662;28;20048;-81
2021/11/12 23:24:38;;;;;;;32.30;22.13;;;;;;;7.80;100.00;100841.28;10564595;28;20056;-82
2021/11/12 23:29:41;;;;;;;43.05;23.30;;;;;;;7.76;100.00;100844.59;10552514;28;20091;-80
2021/11/12 23:34:43;;;;;;;37.70;24.17;;;;;;;7.70;100.00;100837.59;10535932;28;20052;-80
2021/11/12 23:39:45;;;;;;;45.03;25.58;;;;;;;7.69;100.00;100838.41;10534824;28;20123;-83
2021/11/12 23:44:47;;;;;;;43.17;25.63;;;;;;;7.69;100.00;100834.97;10562059;28;20456;-81
2021/11/12 23:49:48;;;;;;;40.55;25.40;;;;;;;7.71;100.00;100838.44;10578786;28;20039;-80
2021/11/12 23:54:55;;;;;;;38.67;25.67;;;;;;;7.70;100.00;100832.44;10584065;28;20047;-80
2021/11/12 23:59:56;;;;;;;36.88;25.38;;;;;;;7.70;100.00;100835.00;10552378;28;20131;-80
